createdAt,value
2018-05-24T00:00:42.727Z,17.10
2018-05-24T00:03:10.186Z,17.10
2018-05-24T00:05:37.623Z,17.10
2018-05-24T00:08:05.079Z,17.10
2018-05-24T00:10:32.606Z,17.00
2018-05-24T00:13:00.026Z,16.90
2018-05-24T00:15:27.478Z,16.90
2018-05-24T00:17:54.938Z,16.90
2018-05-24T00:20:22.376Z,16.90
2018-05-24T00:22:49.819Z,16.90
2018-05-24T00:25:17.257Z,16.90
2018-05-24T00:27:44.720Z,16.90
2018-05-24T00:30:12.161Z,16.90
2018-05-24T00:32:40.398Z,16.90
2018-05-24T00:35:07.829Z,16.90
2018-05-24T00:37:35.282Z,16.80
2018-05-24T00:40:02.719Z,16.80
2018-05-24T00:42:30.176Z,16.80
2018-05-24T00:44:57.617Z,16.70
2018-05-24T00:47:25.042Z,16.60
2018-05-24T00:49:52.470Z,16.70
2018-05-24T00:52:19.953Z,16.70
2018-05-24T00:54:47.553Z,16.60
2018-05-24T00:57:14.862Z,16.60
2018-05-24T00:59:42.303Z,16.60
2018-05-24T01:02:09.733Z,16.60
2018-05-24T01:04:37.201Z,16.60
2018-05-24T01:07:04.644Z,16.70
2018-05-24T01:09:32.095Z,16.70
2018-05-24T01:11:59.510Z,16.70
2018-05-24T01:14:26.958Z,16.80
2018-05-24T01:16:54.420Z,16.90
2018-05-24T01:19:21.861Z,16.90
2018-05-24T01:21:49.320Z,16.90
2018-05-24T01:24:16.764Z,16.90
2018-05-24T01:26:44.205Z,16.90
2018-05-24T01:29:11.637Z,16.80
2018-05-24T01:31:39.094Z,16.70
2018-05-24T01:34:06.522Z,16.60
2018-05-24T01:36:45.782Z,16.50
2018-05-24T01:39:13.986Z,16.40
2018-05-24T01:41:41.437Z,16.40
2018-05-24T01:44:08.870Z,16.40
2018-05-24T01:46:36.307Z,16.40
2018-05-24T01:49:03.832Z,16.30
2018-05-24T01:51:31.194Z,16.40
2018-05-24T01:53:58.645Z,16.30
2018-05-24T01:56:26.111Z,16.30
2018-05-24T01:58:53.542Z,16.30
2018-05-24T02:01:20.979Z,16.30
2018-05-24T02:03:49.190Z,16.20
2018-05-24T02:06:16.674Z,16.20
2018-05-24T02:08:44.111Z,16.30
2018-05-24T02:11:11.546Z,16.30
2018-05-24T02:13:39.001Z,16.40
2018-05-24T02:16:06.430Z,16.30
2018-05-24T02:18:33.874Z,16.30
2018-05-24T02:21:01.312Z,16.30
2018-05-24T02:23:28.814Z,16.30
2018-05-24T02:25:56.247Z,16.30
2018-05-24T02:28:23.683Z,16.40
2018-05-24T02:30:51.130Z,16.40
2018-05-24T02:33:18.573Z,16.40
2018-05-24T02:35:46.070Z,16.40
2018-05-24T02:38:13.466Z,16.30
2018-05-24T02:40:40.918Z,16.30
2018-05-24T02:43:08.334Z,16.40
2018-05-24T02:45:35.794Z,16.50
2018-05-24T02:48:03.230Z,16.50
2018-05-24T02:50:30.687Z,16.50
2018-05-24T02:52:58.135Z,16.50
2018-05-24T02:55:25.572Z,16.50
2018-05-24T02:57:53.013Z,16.50
2018-05-24T03:00:20.454Z,16.50
2018-05-24T03:02:47.918Z,16.50
2018-05-24T03:05:15.400Z,16.50
2018-05-24T03:07:42.866Z,16.50
2018-05-24T03:10:10.286Z,16.50
2018-05-24T03:12:37.735Z,16.60
2018-05-24T03:15:05.176Z,16.60
2018-05-24T03:17:32.643Z,16.50
2018-05-24T03:20:00.126Z,16.50
2018-05-24T03:22:27.586Z,16.60
2018-05-24T03:24:55.014Z,16.50
2018-05-24T03:27:22.442Z,16.60
2018-05-24T03:29:49.890Z,16.60
2018-05-24T03:32:17.323Z,16.60
2018-05-24T03:34:44.767Z,16.60
2018-05-24T03:37:12.206Z,16.60
2018-05-24T03:39:39.638Z,16.60
2018-05-24T03:42:07.083Z,16.60
2018-05-24T03:44:34.523Z,16.60
2018-05-24T03:47:01.980Z,16.60
2018-05-24T03:49:29.421Z,16.70
2018-05-24T03:51:56.884Z,16.70
2018-05-24T03:54:25.068Z,16.70
2018-05-24T03:56:52.513Z,16.70
2018-05-24T04:02:44.488Z,16.70
2018-05-24T04:05:11.952Z,16.80
2018-05-24T04:07:39.399Z,16.80
2018-05-24T04:10:07.727Z,16.90
2018-05-24T04:12:35.231Z,16.90
2018-05-24T04:15:02.715Z,16.90
2018-05-24T04:17:30.188Z,17.00
2018-05-24T04:19:57.666Z,17.00
2018-05-24T04:22:25.903Z,17.10
2018-05-24T04:24:53.420Z,17.10
2018-05-24T04:27:20.867Z,17.20
2018-05-24T04:29:48.351Z,17.20
2018-05-24T04:32:15.867Z,17.20
2018-05-24T04:34:43.370Z,17.30
2018-05-24T04:37:10.881Z,17.40
2018-05-24T04:39:38.497Z,17.40
2018-05-24T04:42:05.966Z,17.40
2018-05-24T04:44:33.606Z,17.40
2018-05-24T04:47:01.052Z,17.50
2018-05-24T04:49:28.684Z,17.50
2018-05-24T04:51:56.900Z,17.40
2018-05-24T04:54:24.469Z,17.40
2018-05-24T04:56:51.964Z,17.50
2018-05-24T04:59:19.494Z,17.50
2018-05-24T05:01:47.017Z,17.50
2018-05-24T05:04:14.642Z,17.40
2018-05-24T05:06:42.296Z,17.40
2018-05-24T05:09:09.787Z,17.40
2018-05-24T05:11:37.289Z,17.50
2018-05-24T05:14:04.762Z,17.50
2018-05-24T05:16:32.232Z,17.60
2018-05-24T05:18:59.721Z,17.60
2018-05-24T05:21:27.244Z,17.70
2018-05-24T05:23:54.715Z,17.90
2018-05-24T05:26:22.217Z,17.90
2018-05-24T05:28:49.733Z,18.00
2018-05-24T05:31:17.220Z,18.20
2018-05-24T05:33:44.769Z,18.30
2018-05-24T05:36:13.050Z,18.30
2018-05-24T05:38:40.684Z,18.30
2018-05-24T05:41:08.193Z,18.30
2018-05-24T05:43:35.641Z,18.30
2018-05-24T05:46:03.127Z,18.40
2018-05-24T05:48:30.640Z,18.40
2018-05-24T05:50:58.594Z,18.50
2018-05-24T05:53:26.064Z,18.60
2018-05-24T05:55:53.524Z,18.70
2018-05-24T05:58:21.084Z,18.70
2018-05-24T06:00:49.014Z,18.70
2018-05-24T06:03:16.475Z,18.60
2018-05-24T06:05:46.372Z,18.60
2018-05-24T06:08:13.964Z,18.60
2018-05-24T06:10:42.423Z,18.70
2018-05-24T06:13:10.223Z,18.70
2018-05-24T06:15:38.533Z,18.80
2018-05-24T06:18:06.247Z,18.70
2018-05-24T06:20:33.745Z,18.80
2018-05-24T06:23:02.291Z,19.00
2018-05-24T06:25:29.760Z,18.90
2018-05-24T06:27:57.308Z,19.00
2018-05-24T06:30:24.833Z,19.10
2018-05-24T06:32:52.312Z,19.10
2018-05-24T06:35:20.131Z,19.10
2018-05-24T06:37:48.486Z,19.20
2018-05-24T06:40:17.282Z,19.20
2018-05-24T06:42:47.358Z,19.20
2018-05-24T06:45:18.055Z,19.20
2018-05-24T06:47:50.057Z,19.20
2018-05-24T06:50:20.192Z,19.10
2018-05-24T06:52:49.374Z,19.10
2018-05-24T06:55:23.332Z,19.00
2018-05-24T06:58:05.088Z,18.90
2018-05-24T07:01:05.016Z,19.00
2018-05-24T07:03:33.414Z,19.00
2018-05-24T07:06:02.677Z,19.00
2018-05-24T07:08:31.280Z,19.10
2018-05-24T07:11:00.379Z,19.10
2018-05-24T07:13:28.898Z,19.20
2018-05-24T07:15:56.589Z,19.30
2018-05-24T07:18:25.148Z,19.30
2018-05-24T07:20:53.125Z,19.40
2018-05-24T07:23:24.661Z,19.50
2018-05-24T07:25:53.459Z,19.60
2018-05-24T07:28:21.272Z,19.70
2018-05-24T07:30:49.131Z,19.70
2018-05-24T07:33:17.576Z,19.70
2018-05-24T07:35:45.184Z,19.60
2018-05-24T07:38:13.881Z,19.70
2018-05-24T07:40:45.353Z,19.70
2018-05-24T07:43:13.176Z,19.70
2018-05-24T07:45:41.052Z,19.70
2018-05-24T07:48:08.764Z,19.70
2018-05-24T07:50:36.471Z,19.70
2018-05-24T07:53:06.016Z,19.60
2018-05-24T07:55:34.149Z,19.60
2018-05-24T07:58:01.603Z,19.50
2018-05-24T08:00:29.072Z,19.60
2018-05-24T08:02:56.782Z,19.70
2018-05-24T08:05:25.264Z,20.10
2018-05-24T08:07:52.771Z,20.10
2018-05-24T08:10:22.007Z,20.20
2018-05-24T08:12:49.732Z,20.20
2018-05-24T08:15:17.306Z,20.20
2018-05-24T08:17:46.163Z,20.40
2018-05-24T08:20:13.684Z,20.30
2018-05-24T08:22:41.643Z,20.60
2018-05-24T08:25:10.157Z,20.70
2018-05-24T08:27:37.947Z,20.60
2018-05-24T08:30:07.785Z,20.60
2018-05-24T08:32:36.287Z,20.60
2018-05-24T08:35:04.990Z,20.80
2018-05-24T08:37:35.117Z,20.70
2018-05-24T08:40:23.963Z,20.90
2018-05-24T08:42:57.381Z,20.80
2018-05-24T08:45:31.748Z,20.70
2018-05-24T08:48:05.965Z,20.70
2018-05-24T08:50:41.787Z,20.70
2018-05-24T08:53:12.073Z,20.70
2018-05-24T08:55:57.738Z,20.60
2018-05-24T08:58:31.250Z,20.60
2018-05-24T09:01:07.015Z,20.60
2018-05-24T09:03:39.877Z,20.70
2018-05-24T09:06:11.100Z,20.80
2018-05-24T09:08:42.700Z,20.90
2018-05-24T09:11:13.967Z,21.10
2018-05-24T09:13:43.351Z,21.40
2018-05-24T09:16:11.100Z,21.60
2018-05-24T09:18:40.009Z,21.70
2018-05-24T09:21:08.291Z,22.00
2018-05-24T09:23:36.720Z,21.90
2018-05-24T09:26:04.373Z,22.20
2018-05-24T09:28:32.434Z,22.40
2018-05-24T09:31:01.803Z,22.60
2018-05-24T09:33:29.467Z,22.80
2018-05-24T09:35:58.438Z,23.00
2018-05-24T09:38:26.323Z,23.10
2018-05-24T09:40:54.172Z,23.10
2018-05-24T09:43:22.073Z,23.10
2018-05-24T09:45:50.005Z,23.20
2018-05-24T09:48:17.866Z,23.20
2018-05-24T09:50:45.724Z,23.30
2018-05-24T09:53:14.074Z,23.60
2018-05-24T09:55:41.791Z,23.60
2018-05-24T09:58:10.129Z,23.70
2018-05-24T10:00:38.203Z,23.60
2018-05-24T10:03:09.607Z,23.40
2018-05-24T10:05:52.709Z,23.20
2018-05-24T10:08:29.140Z,23.10
2018-05-24T10:11:07.796Z,23.00
2018-05-24T10:13:45.444Z,23.00
2018-05-24T10:16:17.780Z,22.80
2018-05-24T10:18:50.227Z,22.70
2018-05-24T10:21:23.912Z,22.80
2018-05-24T10:23:59.463Z,23.00
2018-05-24T10:26:31.098Z,23.10
2018-05-24T10:29:02.399Z,23.10
2018-05-24T10:31:37.269Z,23.30
2018-05-24T10:34:18.718Z,23.60
2018-05-24T10:36:56.335Z,23.50
2018-05-24T10:39:41.943Z,23.70
2018-05-24T10:42:15.324Z,24.00
2018-05-24T10:44:53.981Z,24.60
2018-05-24T10:47:23.025Z,24.50
2018-05-24T10:49:53.084Z,24.80
2018-05-24T10:52:24.394Z,24.90
2018-05-24T10:54:52.395Z,24.90
2018-05-24T10:57:20.072Z,24.80
2018-05-24T10:59:47.966Z,24.70
2018-05-24T11:02:15.486Z,24.50
2018-05-24T11:04:43.086Z,24.30
2018-05-24T11:07:10.612Z,24.20
2018-05-24T11:09:38.157Z,24.10
2018-05-24T11:12:06.257Z,23.90
2018-05-24T11:14:34.705Z,23.90
2018-05-24T11:17:02.648Z,23.80
2018-05-24T11:19:30.377Z,23.70
2018-05-24T11:21:57.946Z,23.80
2018-05-24T11:24:25.508Z,23.90
2018-05-24T11:26:53.840Z,24.30
2018-05-24T11:29:21.369Z,24.20
2018-05-24T11:31:49.021Z,24.50
2018-05-24T11:34:16.567Z,24.80
2018-05-24T11:36:45.284Z,25.00
2018-05-24T11:39:13.220Z,25.10
2018-05-24T11:41:40.925Z,25.30
2018-05-24T11:44:09.419Z,25.60
2018-05-24T11:46:38.076Z,26.00
2018-05-24T11:49:06.343Z,27.10
2018-05-24T11:54:05.639Z,27.40
2018-05-24T11:56:33.152Z,27.50
2018-05-24T11:59:00.639Z,27.10
2018-05-24T12:01:28.935Z,26.20
2018-05-24T12:03:56.462Z,26.10
2018-05-24T12:06:24.884Z,26.30
2018-05-24T12:18:09.133Z,25.00
2018-05-24T12:20:41.545Z,24.40
2018-05-24T12:23:09.320Z,24.40
2018-05-24T12:25:36.886Z,24.50
2018-05-24T12:28:05.389Z,24.60
2018-05-24T12:30:33.524Z,24.90
2018-05-24T12:33:01.139Z,25.00
2018-05-24T12:35:30.729Z,25.30
2018-05-24T12:38:02.505Z,25.80
2018-05-24T12:40:33.436Z,26.50
2018-05-24T12:52:31.553Z,28.70
2018-05-24T12:54:59.344Z,32.40
2018-05-24T12:57:32.831Z,35.20
2018-05-24T13:00:04.629Z,37.60
2018-05-24T13:02:34.683Z,38.60
2018-05-24T13:05:07.994Z,36.60
2018-05-24T13:07:46.488Z,36.50
2018-05-24T13:10:22.571Z,35.50
2018-05-24T13:12:51.591Z,34.40
2018-05-24T13:15:19.450Z,34.10
2018-05-24T13:17:47.234Z,35.30
2018-05-24T13:23:04.720Z,37.00
2018-05-24T13:28:22.980Z,36.20
2018-05-24T13:33:40.531Z,35.90
2018-05-24T13:36:08.638Z,35.40
2018-05-24T13:38:36.478Z,35.10
2018-05-24T13:47:48.044Z,33.80
2018-05-24T13:50:16.615Z,32.70
2018-05-24T13:52:45.148Z,32.80
2018-05-24T13:55:13.724Z,34.40
2018-05-24T14:00:43.962Z,35.70
2018-05-24T14:03:17.543Z,37.40
2018-05-24T14:05:46.203Z,37.90
2018-05-24T14:08:14.688Z,37.60
2018-05-24T14:10:48.246Z,36.50
2018-05-24T14:13:36.999Z,35.30
2018-05-24T14:16:07.961Z,34.10
2018-05-24T14:21:15.953Z,32.40
2018-05-24T14:23:43.867Z,31.70
2018-05-24T14:26:11.460Z,31.20
2018-05-24T14:28:39.206Z,30.90
2018-05-24T14:31:08.125Z,30.80
2018-05-24T14:38:53.342Z,30.20
2018-05-24T14:44:10.671Z,29.80
2018-05-24T14:49:25.707Z,29.20
2018-05-24T14:52:06.838Z,28.90
2018-05-24T14:57:33.430Z,28.40
2018-05-24T15:00:16.165Z,28.00
2018-05-24T15:02:46.752Z,27.90
2018-05-24T15:05:25.695Z,28.00
2018-05-24T15:10:33.438Z,28.00
2018-05-24T15:13:00.890Z,27.90
2018-05-24T15:15:29.109Z,27.70
2018-05-24T15:17:56.550Z,27.60
2018-05-24T15:20:23.988Z,27.50
2018-05-24T15:22:51.431Z,27.60
2018-05-24T15:25:18.894Z,27.60
2018-05-24T15:27:46.344Z,27.70
2018-05-24T15:30:13.862Z,27.80
2018-05-24T15:32:41.297Z,27.90
2018-05-24T15:35:08.743Z,28.00
2018-05-24T15:37:36.189Z,27.80
2018-05-24T15:40:03.622Z,27.60
2018-05-24T15:42:31.073Z,27.30
2018-05-24T15:44:58.526Z,27.20
2018-05-24T15:47:25.955Z,27.20
2018-05-24T15:49:54.170Z,27.60
2018-05-24T15:52:21.627Z,27.50
2018-05-24T15:54:49.108Z,28.10
2018-05-24T15:57:16.573Z,29.20
2018-05-24T15:59:44.003Z,31.00
2018-05-24T16:02:11.455Z,33.10
2018-05-24T16:04:38.916Z,35.00
2018-05-24T16:07:06.348Z,36.10
2018-05-24T16:09:33.800Z,36.90
2018-05-24T16:12:01.232Z,37.90
2018-05-24T16:14:28.724Z,39.20
2018-05-24T16:16:56.181Z,39.80
2018-05-24T16:19:23.659Z,40.00
2018-05-24T16:21:51.108Z,40.40
2018-05-24T16:24:18.559Z,40.40
2018-05-24T16:26:45.980Z,40.10
2018-05-24T16:29:13.437Z,39.60
2018-05-24T16:31:40.886Z,39.00
2018-05-24T16:34:08.321Z,38.20
2018-05-24T16:36:35.779Z,38.10
2018-05-24T16:39:03.222Z,38.10
2018-05-24T16:41:30.704Z,37.80
2018-05-24T16:43:58.142Z,37.60
2018-05-24T16:46:25.575Z,37.30
2018-05-24T16:48:53.032Z,36.70
2018-05-24T16:51:20.462Z,36.10
2018-05-24T16:53:48.675Z,33.60
2018-05-24T16:56:16.106Z,33.50
2018-05-24T16:58:43.550Z,32.30
2018-05-24T17:01:10.984Z,31.30
2018-05-24T17:03:38.451Z,30.40
2018-05-24T17:06:06.662Z,29.00
2018-05-24T17:08:34.125Z,28.90
2018-05-24T17:11:01.552Z,28.50
2018-05-24T17:13:29.779Z,27.70
2018-05-24T17:15:57.212Z,27.70
2018-05-24T17:18:24.665Z,27.30
2018-05-24T17:20:52.179Z,26.90
2018-05-24T17:23:19.638Z,26.60
2018-05-24T17:25:47.090Z,26.40
2018-05-24T17:28:14.522Z,26.20
2018-05-24T17:30:41.945Z,26.00
2018-05-24T17:33:09.402Z,25.70
2018-05-24T17:35:36.838Z,25.40
2018-05-24T17:38:05.039Z,24.70
2018-05-24T17:40:32.482Z,24.70
2018-05-24T17:42:59.929Z,24.50
2018-05-24T17:45:28.134Z,24.20
2018-05-24T17:47:55.585Z,24.20
2018-05-24T17:50:23.008Z,24.10
2018-05-24T17:52:50.445Z,23.90
2018-05-24T17:55:17.898Z,23.80
2018-05-24T17:57:45.351Z,23.70
2018-05-24T18:00:12.784Z,23.60
2018-05-24T18:02:40.237Z,23.50
2018-05-24T18:05:07.666Z,23.40
2018-05-24T18:07:35.121Z,23.40
2018-05-24T18:10:02.547Z,23.30
2018-05-24T18:12:30.005Z,23.20
2018-05-24T18:14:58.251Z,23.00
2018-05-24T18:17:25.625Z,22.90
2018-05-24T18:19:53.074Z,22.90
2018-05-24T18:22:20.515Z,22.80
2018-05-24T18:24:47.990Z,22.70
2018-05-24T18:27:15.438Z,22.60
2018-05-24T18:29:42.861Z,22.60
2018-05-24T18:32:10.293Z,22.40
2018-05-24T18:34:37.738Z,22.20
2018-05-24T18:37:05.174Z,22.10
2018-05-24T18:39:32.621Z,22.00
2018-05-24T18:42:00.077Z,21.90
2018-05-24T18:44:27.521Z,21.90
2018-05-24T18:46:54.954Z,21.90
2018-05-24T18:49:22.494Z,21.90
2018-05-24T18:51:50.707Z,22.00
2018-05-24T18:54:18.150Z,21.90
2018-05-24T18:56:45.728Z,21.90
2018-05-24T18:59:13.162Z,21.80
2018-05-24T19:01:40.591Z,21.70
2018-05-24T19:04:08.034Z,21.70
2018-05-24T19:06:35.465Z,21.60
2018-05-24T19:09:02.919Z,21.60
2018-05-24T19:11:30.354Z,21.50
2018-05-24T19:13:57.794Z,21.60
2018-05-24T19:16:25.239Z,21.50
2018-05-24T19:18:53.455Z,21.50
2018-05-24T19:21:20.911Z,21.40
2018-05-24T19:23:48.371Z,21.50
2018-05-24T19:26:15.814Z,21.40
2018-05-24T19:28:43.257Z,21.30
2018-05-24T19:31:11.458Z,20.90
2018-05-24T19:33:38.899Z,20.80
2018-05-24T19:36:06.338Z,20.70
2018-05-24T19:38:33.779Z,20.40
2018-05-24T19:41:01.214Z,20.20
2018-05-24T19:43:28.658Z,19.80
2018-05-24T19:45:56.085Z,19.00
2018-05-24T19:48:23.611Z,18.40
2018-05-24T19:50:51.043Z,17.90
2018-05-24T19:53:18.485Z,17.40
2018-05-24T19:55:45.988Z,17.10
2018-05-24T19:58:13.376Z,16.90
2018-05-24T20:00:40.829Z,16.80
2018-05-24T20:03:08.247Z,16.60
2018-05-24T20:05:35.695Z,16.50
2018-05-24T20:08:03.123Z,16.30
2018-05-24T20:10:30.572Z,16.10
2018-05-24T20:12:58.042Z,15.90
2018-05-24T20:15:25.638Z,15.70
2018-05-24T20:17:53.074Z,15.70
2018-05-24T20:20:20.522Z,15.60
2018-05-24T20:22:48.025Z,15.70
2018-05-24T20:25:15.385Z,15.60
2018-05-24T20:27:43.597Z,15.50
2018-05-24T20:30:11.048Z,15.40
2018-05-24T20:32:38.565Z,15.50
2018-05-24T20:35:05.978Z,15.40
2018-05-24T20:37:33.414Z,15.50
2018-05-24T20:40:00.867Z,15.60
2018-05-24T20:42:28.314Z,15.80
2018-05-24T20:44:55.763Z,15.90
2018-05-24T20:47:23.195Z,15.90
2018-05-24T20:49:50.653Z,16.10
2018-05-24T20:52:18.145Z,16.20
2018-05-24T20:54:45.596Z,16.30
2018-05-24T20:57:13.043Z,16.40
2018-05-24T20:59:40.490Z,16.40
2018-05-24T21:02:08.698Z,16.40
2018-05-24T21:04:36.169Z,16.40
2018-05-24T21:07:03.624Z,16.40
2018-05-24T21:09:31.080Z,16.40
2018-05-24T21:11:58.533Z,16.50
2018-05-24T21:14:25.998Z,16.60
2018-05-24T21:16:53.437Z,16.60
2018-05-24T21:19:20.885Z,16.70
2018-05-24T21:21:49.239Z,16.70
2018-05-24T21:24:16.763Z,16.80
2018-05-24T21:26:44.246Z,16.80
2018-05-24T21:29:11.691Z,16.80
2018-05-24T21:31:39.147Z,16.80
2018-05-24T21:34:06.589Z,16.80
2018-05-24T21:36:34.655Z,16.70
2018-05-24T21:39:02.111Z,16.70
2018-05-24T21:41:29.571Z,16.80
2018-05-24T21:43:57.240Z,16.70
2018-05-24T21:46:24.710Z,16.80
2018-05-24T21:48:52.163Z,16.70
2018-05-24T21:51:19.640Z,16.70
2018-05-24T21:53:47.078Z,16.70
2018-05-24T21:56:14.538Z,16.70
2018-05-24T21:58:41.994Z,16.70
2018-05-24T22:01:09.457Z,16.60
2018-05-24T22:03:36.907Z,16.40
2018-05-24T22:06:04.346Z,16.30
2018-05-24T22:08:31.806Z,16.20
2018-05-24T22:10:59.340Z,16.20
2018-05-24T22:13:26.723Z,16.20
2018-05-24T22:15:54.176Z,16.10
2018-05-24T22:18:21.635Z,16.00
2018-05-24T22:20:49.082Z,15.90
2018-05-24T22:23:16.541Z,15.80
2018-05-24T22:25:44.008Z,15.80
2018-05-24T22:28:11.456Z,15.70
2018-05-24T22:30:38.913Z,15.60
2018-05-24T22:33:06.369Z,15.50
2018-05-24T22:35:33.827Z,15.50
2018-05-24T22:38:01.293Z,15.40
2018-05-24T22:40:28.713Z,15.50
2018-05-24T22:42:56.163Z,15.50
2018-05-24T22:45:23.602Z,15.50
2018-05-24T22:47:51.069Z,15.40
2018-05-24T22:50:18.579Z,15.40
2018-05-24T22:52:46.039Z,15.40
2018-05-24T22:55:13.495Z,15.40
2018-05-24T22:57:40.971Z,15.40
2018-05-24T23:00:08.439Z,15.40
2018-05-24T23:02:35.890Z,15.50
2018-05-24T23:05:03.331Z,15.50
2018-05-24T23:07:30.806Z,15.50
2018-05-24T23:09:58.241Z,15.50
2018-05-24T23:12:25.717Z,15.40
2018-05-24T23:14:53.146Z,15.40
2018-05-24T23:17:20.612Z,15.40
2018-05-24T23:19:48.058Z,15.40
2018-05-24T23:22:27.416Z,15.40
2018-05-24T23:24:54.854Z,15.40
2018-05-24T23:27:22.309Z,15.40
2018-05-24T23:29:49.762Z,15.40
2018-05-24T23:32:17.294Z,15.40
2018-05-24T23:34:44.747Z,15.40
2018-05-24T23:37:12.198Z,15.40
2018-05-24T23:39:39.663Z,15.40
2018-05-24T23:42:07.095Z,15.40
2018-05-24T23:44:34.534Z,15.40
2018-05-24T23:47:01.986Z,15.30
2018-05-24T23:49:29.418Z,15.30
2018-05-24T23:51:56.850Z,15.30
2018-05-24T23:54:24.384Z,15.30
2018-05-24T23:56:51.818Z,15.30
2018-05-24T23:59:19.271Z,15.40
